Time;durP1;ratioP1;P1;durP2;ratioP2;P2;SDS_P1;SDS_P2;PMS_P1;PMS_P2;Temp;Humidity;BMP_temperature;BMP_pressure;BME280_temperature;BME280_humidity;BME280_pressure;Samples;Min_cycle;Max_cycle;Signal;HPM_P1;HPM_P2
2021/01/11 00:02:07;;;;;;;35.83;20.70;;;-2.10;99.90;;;;;;5051309;28;20029;-49
2021/01/11 00:04:33;;;;;;;27.42;18.08;;;-2.10;99.90;;;;;;5049437;28;20021;-46
2021/01/11 00:06:58;;;;;;;31.75;17.65;;;-2.00;99.90;;;;;;5051459;28;20467;-45
2021/01/11 00:09:24;;;;;;;33.95;19.90;;;-2.00;99.90;;;;;;5050877;28;20025;-47
2021/01/11 00:11:50;;;;;;;27.10;17.85;;;-2.00;99.90;;;;;;5051358;28;20646;-48
2021/01/11 00:14:15;;;;;;;27.63;18.23;;;-2.00;99.90;;;;;;5050879;28;20113;-51
2021/01/11 00:16:41;;;;;;;24.70;16.05;;;-1.90;99.90;;;;;;5050802;28;20115;-48
2021/01/11 00:19:07;;;;;;;28.30;15.80;;;-2.00;99.90;;;;;;5050958;28;20025;-49
2021/01/11 00:21:32;;;;;;;26.67;17.73;;;-2.00;99.90;;;;;;5050569;28;20036;-51
2021/01/11 00:23:58;;;;;;;22.88;15.30;;;-2.10;99.90;;;;;;5050854;28;20097;-52
2021/01/11 00:26:23;;;;;;;24.90;17.38;;;-2.10;99.90;;;;;;5048812;28;20401;-52
2021/01/11 00:28:49;;;;;;;25.73;14.77;;;-2.20;99.90;;;;;;5039849;28;20028;-50
2021/01/11 00:31:25;;;;;;;21.45;13.93;;;-2.20;99.90;;;;;;5050935;28;20044;-51
2021/01/11 00:33:51;;;;;;;23.60;15.30;;;-2.20;99.90;;;;;;5050669;28;20522;-50
2021/01/11 00:36:17;;;;;;;25.77;14.63;;;-2.20;99.90;;;;;;5050958;28;20033;-52
2021/01/11 00:38:43;;;;;;;22.90;14.57;;;-2.20;99.90;;;;;;5049357;28;20511;-50
2021/01/11 00:41:15;;;;;;;26.50;15.35;;;-2.20;99.90;;;;;;5050501;28;20033;-53
2021/01/11 00:43:41;;;;;;;20.15;14.10;;;-2.20;99.90;;;;;;5050229;28;20057;-53
2021/01/11 00:46:06;;;;;;;24.05;14.25;;;-2.20;99.90;;;;;;5050576;28;20110;-54
2021/01/11 00:48:32;;;;;;;22.38;15.27;;;-2.20;99.90;;;;;;5050737;28;20020;-51
2021/01/11 00:50:57;;;;;;;23.70;14.10;;;-2.30;99.90;;;;;;5050526;28;20036;-50
2021/01/11 00:53:22;;;;;;;20.38;13.27;;;-2.20;99.90;;;;;;5050124;28;20032;-51
2021/01/11 00:55:48;;;;;;;24.50;15.30;;;-2.30;99.90;;;;;;5050662;28;20029;-52
2021/01/11 00:58:13;;;;;;;24.23;13.95;;;-2.30;99.90;;;;;;5050466;28;20101;-52
2021/01/11 01:00:39;;;;;;;26.63;16.08;;;-2.30;99.90;;;;;;5050466;28;20075;-46
2021/01/11 01:03:05;;;;;;;24.92;15.48;;;-2.30;99.90;;;;;;5050215;28;20071;-51
2021/01/11 01:05:30;;;;;;;20.63;13.65;;;-2.30;99.90;;;;;;5050914;28;20091;-51
2021/01/11 01:07:55;;;;;;;22.95;14.65;;;-2.30;99.90;;;;;;5050872;28;20060;-47
2021/01/11 01:10:21;;;;;;;20.95;13.48;;;-2.30;99.90;;;;;;5053574;28;20365;-50
2021/01/11 01:12:46;;;;;;;26.58;15.50;;;-2.30;99.90;;;;;;5054623;28;20037;-54
2021/01/11 01:15:12;;;;;;;31.52;17.17;;;-2.30;99.90;;;;;;5054826;28;20036;-48
2021/01/11 01:17:38;;;;;;;23.30;14.90;;;-2.30;99.90;;;;;;5053415;28;20117;-47
2021/01/11 01:20:05;;;;;;;22.77;14.60;;;-2.20;99.90;;;;;;5054756;28;20541;-49
2021/01/11 01:22:31;;;;;;;25.02;14.52;;;-2.40;99.90;;;;;;5054621;28;20056;-54
2021/01/11 01:24:56;;;;;;;24.08;14.80;;;-2.40;99.90;;;;;;5054408;28;20017;-49
2021/01/11 01:27:22;;;;;;;21.33;13.07;;;-2.50;99.90;;;;;;5054454;28;20159;-51
2021/01/11 01:29:47;;;;;;;24.73;13.95;;;-2.50;99.90;;;;;;5054324;28;20025;-51
2021/01/11 01:32:12;;;;;;;22.48;14.55;;;-2.60;99.90;;;;;;5054358;28;20515;-52
2021/01/11 01:34:38;;;;;;;22.42;14.82;;;-2.50;99.90;;;;;;5075708;23;20034;-51
2021/01/11 01:37:03;;;;;;;23.33;14.85;;;-2.60;99.90;;;;;;5033688;28;20045;-47
2021/01/11 01:39:29;;;;;;;24.00;15.38;;;-2.60;99.90;;;;;;5034093;28;20025;-47
2021/01/11 01:41:54;;;;;;;18.63;13.13;;;-2.60;99.90;;;;;;5033939;28;20072;-47
2021/01/11 01:44:20;;;;;;;24.10;15.38;;;-2.50;99.90;;;;;;5033188;28;20473;-47
2021/01/11 01:46:46;;;;;;;21.98;15.07;;;;;;;;;;5033724;28;20057;-51
2021/01/11 01:49:12;;;;;;;28.52;14.38;;;-2.40;99.90;;;;;;5033887;28;20029;-50
2021/01/11 01:51:39;;;;;;;23.35;14.75;;;-2.40;99.90;;;;;;5033695;28;20033;-51
2021/01/11 01:54:05;;;;;;;26.38;15.98;;;-2.30;99.90;;;;;;5031786;28;20029;-52
2021/01/11 01:56:30;;;;;;;24.30;14.52;;;-2.30;99.90;;;;;;5033461;28;20096;-47
2021/01/11 01:58:57;;;;;;;24.83;14.07;;;-2.30;99.90;;;;;;5033371;28;20166;-51
2021/01/11 02:01:23;;;;;;;25.67;15.95;;;-2.30;99.90;;;;;;5033505;28;20028;-49
2021/01/11 02:03:48;;;;;;;27.70;14.82;;;-2.40;99.90;;;;;;5032914;28;20025;-47
2021/01/11 02:06:14;;;;;;;22.45;14.93;;;-2.40;99.90;;;;;;5033418;28;20155;-48
2021/01/11 02:08:49;;;;;;;25.20;14.55;;;-2.40;99.90;;;;;;5033408;28;20048;-48
2021/01/11 02:11:29;;;;;;;22.23;14.48;;;-2.30;99.90;;;;;;5033347;28;20017;-53
2021/01/11 02:14:19;;;;;;;23.02;15.35;;;-2.40;99.90;;;;;;5032670;28;20025;-50
2021/01/11 02:17:16;;;;;;;27.50;15.50;;;-2.40;99.90;;;;;;5033279;28;20018;-50
2021/01/11 02:20:13;;;;;;;25.35;15.25;;;-2.40;99.90;;;;;;5033353;28;20661;-48
2021/01/11 02:22:51;;;;;;;22.80;14.32;;;-2.40;99.90;;;;;;5031797;28;20037;-53
2021/01/11 02:25:25;;;;;;;26.50;15.43;;;-2.40;99.90;;;;;;5033148;28;20156;-51
2021/01/11 02:27:57;;;;;;;24.83;14.27;;;-2.50;99.90;;;;;;5031856;28;20021;-53
2021/01/11 02:30:25;;;;;;;28.70;15.45;;;-2.40;99.90;;;;;;5033170;28;20469;-53
2021/01/11 02:33:04;;;;;;;23.33;14.63;;;-2.50;99.90;;;;;;5032262;28;20071;-48
2021/01/11 02:35:49;;;;;;;24.23;15.65;;;-2.50;99.90;;;;;;5032636;28;20056;-48
2021/01/11 02:38:22;;;;;;;22.33;13.50;;;-2.50;99.90;;;;;;5015240;28;20022;-47
2021/01/11 02:40:49;;;;;;;25.33;14.57;;;-2.40;99.90;;;;;;5032715;28;20120;-50
2021/01/11 02:43:15;;;;;;;26.80;15.18;;;-2.40;99.90;;;;;;5032370;28;20385;-49
2021/01/11 02:45:41;;;;;;;26.70;16.75;;;-2.50;99.90;;;;;;5033063;28;20701;-47
2021/01/11 02:48:30;;;;;;;25.95;15.02;;;-2.50;99.90;;;;;;5033016;28;20109;-48
2021/01/11 02:51:05;;;;;;;26.73;16.48;;;-2.90;99.90;;;;;;5032767;28;20053;-48
2021/01/11 02:53:43;;;;;;;27.97;16.10;;;-3.10;99.90;;;;;;5031029;28;20392;-48
2021/01/11 02:56:12;;;;;;;27.23;16.05;;;-3.00;99.90;;;;;;5032597;28;20025;-48
2021/01/11 02:58:56;;;;;;;25.95;16.58;;;-2.90;99.90;;;;;;5032535;28;20403;-47
2021/01/11 03:01:26;;;;;;;25.27;16.90;;;-2.90;99.90;;;;;;5032441;28;20025;-52
2021/01/11 03:03:54;;;;;;;23.80;16.92;;;-2.90;99.90;;;;;;5031684;28;20532;-47
2021/01/11 03:06:20;;;;;;;29.80;17.45;;;-2.80;99.90;;;;;;5032191;28;20144;-47
2021/01/11 03:08:45;;;;;;;24.73;16.45;;;-2.80;99.90;;;;;;5032130;28;20112;-49
2021/01/11 03:11:11;;;;;;;29.48;16.75;;;-2.80;99.90;;;;;;5032237;28;20034;-48
2021/01/11 03:13:36;;;;;;;26.10;16.42;;;-2.80;99.90;;;;;;5031435;28;20396;-49
2021/01/11 03:16:03;;;;;;;28.45;16.45;;;-2.80;99.90;;;;;;5032038;28;20044;-52
2021/01/11 03:18:29;;;;;;;22.58;15.13;;;-2.80;99.90;;;;;;5032043;28;20025;-50
2021/01/11 03:20:54;;;;;;;22.25;14.80;;;-2.00;99.90;;;;;;5031846;28;20075;-48
2021/01/11 03:23:20;;;;;;;23.52;14.43;;;;;;;;;;5029906;28;20021;-46
2021/01/11 03:25:46;;;;;;;29.88;15.23;;;-3.00;99.90;;;;;;5032069;28;20025;-48
2021/01/11 03:28:11;;;;;;;28.25;16.55;;;-3.10;99.90;;;;;;5031908;28;20542;-46
2021/01/11 03:30:37;;;;;;;23.33;14.27;;;-3.10;99.90;;;;;;5031814;28;20060;-48
2021/01/11 03:33:02;;;;;;;23.90;14.48;;;-3.10;99.90;;;;;;5030779;28;20124;-51
2021/01/11 03:35:28;;;;;;;23.80;15.45;;;-3.10;99.90;;;;;;5031644;28;20051;-47
2021/01/11 03:37:54;;;;;;;22.90;15.02;;;-3.10;99.90;;;;;;5031675;28;20400;-46
2021/01/11 03:40:19;;;;;;;22.90;14.93;;;-3.10;99.90;;;;;;5031679;28;20064;-45
2021/01/11 03:42:45;;;;;;;28.05;16.25;;;-3.10;99.90;;;;;;5030981;28;20025;-47
2021/01/11 03:45:12;;;;;;;25.42;14.55;;;-3.10;99.90;;;;;;5031484;28;20025;-51
2021/01/11 03:47:38;;;;;;;26.48;15.98;;;-3.10;99.90;;;;;;5031529;28;20163;-48
2021/01/11 03:50:05;;;;;;;23.05;15.27;;;-3.10;99.90;;;;;;5031453;28;20507;-52
2021/01/11 03:52:35;;;;;;;25.45;15.77;;;-3.10;99.90;;;;;;5029920;28;20404;-51
2021/01/11 03:55:01;;;;;;;26.48;16.15;;;-3.10;99.90;;;;;;5031496;28;20484;-50
2021/01/11 03:57:29;;;;;;;25.75;15.70;;;-3.00;99.90;;;;;;5031511;28;20033;-50
2021/01/11 03:59:54;;;;;;;24.38;15.10;;;-3.00;99.90;;;;;;5031317;28;20029;-47
2021/01/11 04:02:20;;;;;;;23.27;15.23;;;-3.00;99.90;;;;;;5031276;28;20026;-54
2021/01/11 04:04:46;;;;;;;26.80;15.25;;;-3.00;99.90;;;;;;5030561;28;20362;-49
2021/01/11 04:07:11;;;;;;;25.23;14.57;;;-3.00;99.90;;;;;;5031149;28;20105;-50
2021/01/11 04:09:37;;;;;;;27.02;15.30;;;-3.00;99.90;;;;;;5031313;28;20033;-50
2021/01/11 04:12:02;;;;;;;27.90;16.05;;;-3.00;99.90;;;;;;5029806;28;20021;-47
2021/01/11 04:14:28;;;;;;;22.08;14.77;;;-3.00;99.90;;;;;;5030306;28;20112;-51
2021/01/11 04:16:53;;;;;;;26.00;15.63;;;-2.90;99.90;;;;;;5031087;28;20030;-48
2021/01/11 04:19:19;;;;;;;25.25;16.85;;;-2.90;99.90;;;;;;5031135;28;20076;-48
2021/01/11 04:21:44;;;;;;;28.58;18.58;;;-2.80;99.90;;;;;;5029975;28;20088;-48
2021/01/11 04:24:10;;;;;;;31.35;18.45;;;-2.80;99.90;;;;;;5030554;28;20026;-51
2021/01/11 04:26:36;;;;;;;32.17;17.15;;;-2.80;99.90;;;;;;5031259;28;20030;-46
2021/01/11 04:29:02;;;;;;;26.98;18.15;;;-2.80;99.90;;;;;;5031214;28;20084;-54
2021/01/11 04:31:28;;;;;;;28.08;17.80;;;;;;;;;;5031245;28;20021;-50
2021/01/11 04:33:53;;;;;;;26.70;17.38;;;-3.30;99.90;;;;;;5030505;28;20108;-51
2021/01/11 04:36:19;;;;;;;30.20;17.27;;;-3.20;99.90;;;;;;5030629;28;20040;-51
2021/01/11 04:38:44;;;;;;;27.48;17.35;;;-3.30;99.90;;;;;;5031155;28;20085;-50
2021/01/11 04:41:11;;;;;;;28.67;17.85;;;-3.30;99.90;;;;;;5031488;28;20032;-52
2021/01/11 04:43:45;;;;;;;34.13;19.90;;;-3.40;99.90;;;;;;5029720;28;20086;-52
2021/01/11 04:46:13;;;;;;;27.15;17.27;;;-3.40;99.90;;;;;;5030963;28;20017;-49
2021/01/11 04:48:40;;;;;;;25.85;16.25;;;-3.40;99.90;;;;;;5030965;28;20018;-50
2021/01/11 04:51:06;;;;;;;28.90;17.25;;;-3.50;99.90;;;;;;5030838;28;20057;-50
2021/01/11 04:53:34;;;;;;;26.48;16.05;;;-3.40;99.90;;;;;;5029029;28;20515;-48
2021/01/11 04:56:01;;;;;;;32.17;18.30;;;-3.40;99.90;;;;;;5030721;28;20148;-46
2021/01/11 04:58:51;;;;;;;26.70;16.60;;;-3.30;99.90;;;;;;5030709;28;20117;-50
2021/01/11 05:01:21;;;;;;;31.13;17.98;;;-3.30;99.90;;;;;;5030535;28;20032;-50
2021/01/11 05:03:48;;;;;;;26.15;16.17;;;-3.30;99.90;;;;;;5029845;28;20032;-47
2021/01/11 05:06:16;;;;;;;26.30;16.70;;;-3.30;99.90;;;;;;5030408;28;20025;-49
2021/01/11 05:08:42;;;;;;;26.40;16.45;;;-3.40;99.90;;;;;;5030495;28;20480;-48
2021/01/11 05:11:07;;;;;;;29.20;16.27;;;-3.40;99.90;;;;;;5030506;28;20032;-47
2021/01/11 05:13:33;;;;;;;24.25;16.13;;;-3.20;99.90;;;;;;5029738;28;20030;-47
2021/01/11 05:16:10;;;;;;;22.08;15.77;;;-3.20;99.90;;;;;;5030458;28;20473;-47
2021/01/11 05:18:35;;;;;;;24.55;15.48;;;-3.30;99.90;;;;;;5030443;28;20040;-48
2021/01/11 05:21:01;;;;;;;27.83;16.85;;;-3.20;99.90;;;;;;5030299;28;20435;-49
2021/01/11 05:23:37;;;;;;;28.25;17.33;;;-3.00;99.90;;;;;;5029694;28;20048;-48
2021/01/11 05:26:16;;;;;;;30.40;18.33;;;-2.90;99.90;;;;;;5030162;28;20024;-51
2021/01/11 05:28:42;;;;;;;25.67;16.92;;;-2.80;99.90;;;;;;5030218;28;20028;-47
2021/01/11 05:31:08;;;;;;;27.70;16.65;;;-2.90;99.90;;;;;;5030309;28;20056;-47
2021/01/11 05:33:33;;;;;;;26.13;16.58;;;-3.10;99.90;;;;;;5029495;28;20626;-48
2021/01/11 05:36:13;;;;;;;24.48;16.23;;;-3.10;99.90;;;;;;5030035;28;20034;-50
2021/01/11 05:38:45;;;;;;;26.17;15.25;;;-3.10;99.90;;;;;;5030172;28;20084;-52
2021/01/11 05:41:21;;;;;;;26.15;15.77;;;-3.20;99.90;;;;;;5030067;28;20021;-50
2021/01/11 05:43:48;;;;;;;27.48;15.88;;;-3.20;99.90;;;;;;5029744;28;20508;-48
2021/01/11 05:46:24;;;;;;;21.83;15.32;;;-3.20;99.90;;;;;;5030386;28;20033;-51
2021/01/11 05:49:00;;;;;;;24.15;15.55;;;-3.20;99.90;;;;;;5030060;28;20396;-48
2021/01/11 05:51:30;;;;;;;28.85;14.95;;;-3.20;99.90;;;;;;5029769;28;20014;-48
2021/01/11 05:53:56;;;;;;;21.23;13.98;;;-3.20;99.90;;;;;;5027505;28;20033;-51
2021/01/11 05:56:23;;;;;;;26.88;16.58;;;-3.20;99.90;;;;;;5032394;28;20018;-51
2021/01/11 05:59:08;;;;;;;26.23;15.00;;;-3.20;99.90;;;;;;5033568;28;20067;-50
2021/01/11 06:01:35;;;;;;;24.08;14.57;;;-3.10;99.90;;;;;;5033685;28;20029;-50
2021/01/11 06:04:01;;;;;;;24.85;15.77;;;-3.00;99.90;;;;;;5032757;28;20420;-47
2021/01/11 06:06:27;;;;;;;26.17;16.90;;;-3.00;99.90;;;;;;5033505;28;20087;-49
2021/01/11 06:08:53;;;;;;;24.98;15.57;;;-3.10;99.90;;;;;;5033304;28;20026;-51
2021/01/11 06:11:26;;;;;;;29.88;15.38;;;-3.10;99.90;;;;;;5033631;28;20108;-49
2021/01/11 06:14:02;;;;;;;30.08;15.68;;;-3.10;99.90;;;;;;5032717;28;20378;-50
2021/01/11 06:16:29;;;;;;;24.42;15.85;;;-3.20;99.90;;;;;;5033364;28;20112;-50
2021/01/11 06:18:55;;;;;;;23.42;15.23;;;-3.30;99.90;;;;;;5033248;28;20116;-50
2021/01/11 06:21:21;;;;;;;27.38;16.35;;;-3.30;99.90;;;;;;5033268;28;20566;-50
2021/01/11 06:23:48;;;;;;;29.10;16.50;;;-3.40;99.90;;;;;;5032642;28;20029;-49
2021/01/11 06:26:26;;;;;;;23.63;15.63;;;-3.30;99.90;;;;;;5032943;28;20028;-51
2021/01/11 06:28:52;;;;;;;25.17;16.67;;;-3.40;99.90;;;;;;5032917;28;20033;-51
2021/01/11 06:31:24;;;;;;;27.23;17.13;;;-3.30;99.90;;;;;;5032986;28;20091;-50
2021/01/11 06:33:49;;;;;;;24.88;17.13;;;-3.30;99.90;;;;;;5032197;28;20029;-49
2021/01/11 06:36:24;;;;;;;25.88;15.63;;;-3.20;99.90;;;;;;5032682;28;20033;-54
2021/01/11 06:38:51;;;;;;;26.85;15.90;;;-3.20;99.90;;;;;;5032610;28;20029;-50
2021/01/11 06:41:18;;;;;;;27.15;16.95;;;-3.20;99.90;;;;;;5032498;28;20041;-47
2021/01/11 06:43:50;;;;;;;21.88;15.43;;;-3.30;99.90;;;;;;5031908;28;20021;-50
2021/01/11 06:46:28;;;;;;;27.77;17.08;;;-3.30;99.90;;;;;;5032462;28;20032;-49
2021/01/11 06:48:59;;;;;;;26.98;16.27;;;-3.30;99.90;;;;;;5032621;28;20547;-50
2021/01/11 06:51:31;;;;;;;23.05;15.73;;;-3.30;99.90;;;;;;5032759;28;20025;-50
2021/01/11 06:54:08;;;;;;;29.75;16.63;;;-3.30;99.90;;;;;;5030463;28;20388;-46
2021/01/11 06:56:36;;;;;;;27.23;15.48;;;-3.30;99.90;;;;;;5032361;28;20099;-51
2021/01/11 06:59:09;;;;;;;27.80;16.77;;;-3.30;99.90;;;;;;5032351;28;20099;-50
2021/01/11 07:01:37;;;;;;;31.67;17.80;;;-3.30;99.90;;;;;;5032429;28;20021;-48
2021/01/11 07:04:04;;;;;;;26.38;16.02;;;-3.30;99.90;;;;;;5031578;28;20018;-49
2021/01/11 07:06:39;;;;;;;24.63;15.52;;;-3.30;99.90;;;;;;5031863;28;20018;-47
2021/01/11 07:09:15;;;;;;;;;;;-3.40;99.90;;;;;;5032529;28;20155;-51
2021/01/11 07:11:45;;;;;;;25.63;16.45;;;-3.30;99.90;;;;;;5032464;28;19931;-49
2021/01/11 07:14:12;;;;;;;28.92;17.67;;;-3.20;99.90;;;;;;5031521;28;20037;-48
2021/01/11 07:16:44;;;;;;;29.48;18.95;;;-3.10;99.90;;;;;;5030674;28;20580;-48
2021/01/11 07:19:14;;;;;;;35.22;18.85;;;-3.10;99.90;;;;;;5032100;28;20033;-51
2021/01/11 07:21:41;;;;;;;28.48;17.75;;;-3.20;99.90;;;;;;5032209;28;20014;-48
2021/01/11 07:24:10;;;;;;;30.40;18.23;;;-3.30;99.90;;;;;;5031383;28;20091;-52
2021/01/11 07:26:36;;;;;;;32.30;19.10;;;-3.40;99.90;;;;;;5031982;28;20021;-48
2021/01/11 07:29:10;;;;;;;34.17;18.60;;;-3.40;99.90;;;;;;5031947;28;20022;-53
2021/01/11 07:31:45;;;;;;;28.58;17.90;;;-3.40;99.90;;;;;;5032098;28;20018;-51
2021/01/11 07:34:18;;;;;;;28.27;17.98;;;-3.40;99.90;;;;;;5031251;28;20134;-50
2021/01/11 07:36:52;;;;;;;32.72;17.40;;;-3.30;99.90;;;;;;5033017;28;20025;-51
2021/01/11 07:39:24;;;;;;;26.85;16.35;;;-3.30;99.90;;;;;;5032018;28;20523;-54
2021/01/11 07:41:55;;;;;;;28.52;17.02;;;-3.30;99.90;;;;;;5032050;28;20034;-47
2021/01/11 07:44:25;;;;;;;31.65;17.17;;;-3.20;99.90;;;;;;5030925;28;20048;-48
2021/01/11 07:46:56;;;;;;;25.27;15.85;;;-3.10;99.90;;;;;;5031704;28;20847;-49
2021/01/11 07:49:22;;;;;;;27.30;16.52;;;-3.10;99.90;;;;;;5032180;28;20025;-49
2021/01/11 07:51:49;;;;;;;25.63;16.30;;;-3.00;99.90;;;;;;5031211;28;20447;-48
2021/01/11 07:54:19;;;;;;;28.08;16.98;;;-2.90;99.90;;;;;;5028726;28;20536;-50
2021/01/11 07:56:47;;;;;;;26.42;17.23;;;-2.90;99.90;;;;;;5030396;28;20022;-50
2021/01/11 07:59:12;;;;;;;29.80;17.85;;;-2.80;99.90;;;;;;5031325;28;20029;-50
2021/01/11 08:01:41;;;;;;;27.73;16.55;;;-2.80;99.90;;;;;;5031693;28;20083;-51
2021/01/11 08:04:06;;;;;;;24.80;16.27;;;-2.70;99.90;;;;;;5031026;28;20025;-48
2021/01/11 08:06:52;;;;;;;24.58;15.05;;;-2.70;99.90;;;;;;5031490;28;20023;-46
2021/01/11 08:09:20;;;;;;;26.83;17.80;;;-2.70;99.90;;;;;;5031816;28;20083;-47
2021/01/11 08:11:46;;;;;;;29.33;15.82;;;-2.70;99.90;;;;;;5030374;28;20264;-51
2021/01/11 08:14:12;;;;;;;30.35;17.02;;;-2.60;99.90;;;;;;5030616;28;20040;-47
2021/01/11 08:16:43;;;;;;;28.77;16.80;;;-2.60;99.90;;;;;;5031251;28;20100;-46
2021/01/11 08:19:10;;;;;;;28.10;16.48;;;-2.50;99.90;;;;;;5030461;28;20104;-46
2021/01/11 08:21:36;;;;;;;25.02;15.82;;;-2.50;99.90;;;;;;5030978;28;20435;-47
2021/01/11 08:24:08;;;;;;;26.08;16.70;;;-2.60;99.90;;;;;;5030567;28;20017;-46
2021/01/11 08:26:50;;;;;;;27.15;17.40;;;-2.50;99.90;;;;;;5031177;28;20017;-46
2021/01/11 08:29:16;;;;;;;26.20;16.92;;;-2.50;99.90;;;;;;5031216;28;20091;-51
2021/01/11 08:31:44;;;;;;;27.13;17.77;;;-2.40;99.90;;;;;;5030691;28;20049;-50
2021/01/11 08:34:10;;;;;;;25.42;16.88;;;-2.40;99.90;;;;;;5030149;28;20037;-48
2021/01/11 08:36:36;;;;;;;28.35;17.50;;;-2.30;99.90;;;;;;5030497;28;20045;-52
2021/01/11 08:39:20;;;;;;;29.13;17.42;;;-2.20;99.90;;;;;;5030296;28;20041;-50
2021/01/11 08:41:50;;;;;;;29.30;17.83;;;-2.10;99.90;;;;;;5030453;28;20021;-47
2021/01/11 08:44:24;;;;;;;24.75;16.75;;;-2.10;99.90;;;;;;5029508;28;20095;-45
2021/01/11 08:46:59;;;;;;;30.38;18.45;;;-2.00;99.90;;;;;;5031261;28;20105;-51
2021/01/11 08:49:24;;;;;;;28.17;17.35;;;-2.00;99.90;;;;;;5030162;28;20025;-48
2021/01/11 08:51:50;;;;;;;29.85;17.33;;;-2.00;99.90;;;;;;5028544;28;20635;-50
2021/01/11 08:54:26;;;;;;;28.83;18.75;;;-1.90;99.90;;;;;;5029284;28;20041;-46
2021/01/11 08:56:54;;;;;;;29.45;18.67;;;-1.50;99.90;;;;;;5030255;28;20033;-48
2021/01/11 08:59:20;;;;;;;26.33;16.48;;;-1.70;99.90;;;;;;5028802;28;20040;-46
2021/01/11 09:01:46;;;;;;;26.90;16.33;;;-1.60;99.90;;;;;;5029975;28;20499;-48
2021/01/11 09:04:34;;;;;;;25.00;16.75;;;-1.30;99.90;;;;;;5029466;28;20388;-48
2021/01/11 09:07:03;;;;;;;24.75;15.20;;;0.50;99.50;;;;;;5029601;28;20014;-48
2021/01/11 09:09:30;;;;;;;24.27;15.38;;;0.90;97.90;;;;;;5030111;28;20036;-46
2021/01/11 09:12:05;;;;;;;18.83;13.50;;;2.30;94.90;;;;;;5030034;28;20484;-48
2021/01/11 09:14:31;;;;;;;23.30;14.82;;;;;;;;;;5028886;28;20025;-50
2021/01/11 09:17:00;;;;;;;26.25;14.82;;;3.90;91.30;;;;;;5027659;28;20104;-47
2021/01/11 09:19:26;;;;;;;22.83;14.45;;;4.10;91.40;;;;;;5029774;28;20030;-46
2021/01/11 09:22:14;;;;;;;20.55;14.20;;;4.70;87.50;;;;;;5029975;28;20037;-46
2021/01/11 09:24:43;;;;;;;18.55;13.93;;;4.80;87.80;;;;;;5029501;28;20014;-46
2021/01/11 09:27:10;;;;;;;21.95;13.48;;;5.20;86.30;;;;;;5028898;28;20036;-46
2021/01/11 09:29:37;;;;;;;18.98;14.48;;;5.20;84.80;;;;;;5030236;28;20071;-50
2021/01/11 09:32:04;;;;;;;21.02;15.10;;;4.90;85.40;;;;;;5033690;28;20029;-47
2021/01/11 09:34:29;;;;;;;18.73;13.52;;;4.80;86.70;;;;;;5033040;28;20045;-45
2021/01/11 09:36:55;;;;;;;27.38;14.98;;;4.90;85.60;;;;;;5033634;28;20033;-51
2021/01/11 09:39:21;;;;;;;17.02;13.10;;;5.10;86.50;;;;;;5033834;28;20030;-46
2021/01/11 09:41:53;;;;;;;20.77;14.10;;;5.30;85.70;;;;;;5033620;28;20034;-47
2021/01/11 09:44:20;;;;;;;22.20;14.52;;;5.40;84.90;;;;;;5032563;28;20072;-46
2021/01/11 09:46:48;;;;;;;20.77;14.32;;;5.50;85.10;;;;;;5033640;28;20017;-46
2021/01/11 09:49:14;;;;;;;20.83;14.57;;;5.70;83.40;;;;;;5025328;28;20438;-52
2021/01/11 09:51:40;;;;;;;19.48;14.25;;;5.70;84.60;;;;;;5034000;28;20469;-46
2021/01/11 09:54:06;;;;;;;21.70;14.68;;;5.50;84.20;;;;;;5032764;28;20105;-52
2021/01/11 09:56:33;;;;;;;20.58;14.30;;;5.20;84.20;;;;;;5033340;28;20451;-46
2021/01/11 09:59:00;;;;;;;22.13;15.02;;;5.10;84.90;;;;;;5032202;28;20065;-49
2021/01/11 10:01:42;;;;;;;22.15;15.23;;;5.10;85.80;;;;;;5033389;28;20033;-48
2021/01/11 10:04:09;;;;;;;23.17;14.57;;;5.40;86.40;;;;;;5013101;28;20029;-49
2021/01/11 10:06:39;;;;;;;23.02;15.27;;;5.10;85.50;;;;;;5013355;28;20612;-47
2021/01/11 10:09:05;;;;;;;19.45;14.63;;;5.00;87.00;;;;;;5032753;28;20061;-50
2021/01/11 10:11:30;;;;;;;22.63;15.30;;;4.80;88.90;;;;;;5033306;28;20687;-48
2021/01/11 10:13:56;;;;;;;22.67;15.40;;;5.20;88.20;;;;;;5032178;28;20116;-48
2021/01/11 10:16:22;;;;;;;22.38;14.88;;;5.10;86.80;;;;;;5033118;28;20028;-49
2021/01/11 10:18:47;;;;;;;21.45;14.45;;;5.20;87.20;;;;;;5031810;28;20061;-51
2021/01/11 10:21:13;;;;;;;21.40;14.73;;;4.90;88.80;;;;;;5033503;28;20459;-49
2021/01/11 10:23:39;;;;;;;21.77;15.50;;;4.80;89.50;;;;;;5032630;28;20035;-47
2021/01/11 10:26:05;;;;;;;17.52;13.82;;;4.80;90.40;;;;;;5033097;28;20025;-47
2021/01/11 10:28:30;;;;;;;20.95;13.98;;;5.30;89.40;;;;;;5032701;28;20118;-48
2021/01/11 10:30:57;;;;;;;21.63;15.00;;;5.70;86.50;;;;;;5032108;28;20057;-47
2021/01/11 10:33:22;;;;;;;19.58;14.07;;;5.40;86.70;;;;;;5032205;28;20029;-48
2021/01/11 10:35:54;;;;;;;23.63;14.63;;;5.40;88.90;;;;;;5032836;28;20059;-50
2021/01/11 10:38:20;;;;;;;19.92;15.25;;;5.40;88.10;;;;;;5032169;28;20028;-47
2021/01/11 10:40:45;;;;;;;24.00;16.02;;;5.50;89.10;;;;;;5032716;28;20025;-50
2021/01/11 10:43:10;;;;;;;28.02;14.63;;;5.50;87.80;;;;;;5030763;28;20089;-49
2021/01/11 10:45:36;;;;;;;22.05;15.35;;;5.60;87.70;;;;;;5032668;28;20033;-47
2021/01/11 10:48:01;;;;;;;24.17;16.58;;;5.60;88.50;;;;;;5032538;28;20100;-49
2021/01/11 10:50:28;;;;;;;23.20;16.35;;;5.40;88.60;;;;;;5031591;28;20022;-47
2021/01/11 10:52:53;;;;;;;25.67;16.90;;;5.10;90.10;;;;;;5031463;28;20032;-50
2021/01/11 10:55:19;;;;;;;25.15;17.85;;;4.80;90.40;;;;;;5032441;28;20029;-52
2021/01/11 10:57:44;;;;;;;27.55;18.33;;;4.40;91.20;;;;;;5032193;28;20088;-51
2021/01/11 11:00:13;;;;;;;24.77;16.48;;;4.10;92.10;;;;;;5032452;28;20714;-48
2021/01/11 11:02:39;;;;;;;24.73;17.08;;;3.70;93.10;;;;;;5031536;28;20151;-50
2021/01/11 11:05:06;;;;;;;24.98;17.98;;;3.60;93.20;;;;;;5032394;28;20080;-54
2021/01/11 11:07:38;;;;;;;27.25;17.95;;;3.50;93.70;;;;;;5032098;28;20025;-51
2021/01/11 11:10:08;;;;;;;27.30;18.17;;;3.40;94.40;;;;;;5032039;28;20115;-49
2021/01/11 11:12:34;;;;;;;30.05;18.70;;;3.20;94.60;;;;;;5031377;28;20108;-46
2021/01/11 11:15:00;;;;;;;27.45;18.17;;;3.20;94.50;;;;;;5032225;28;20030;-50
2021/01/11 11:17:30;;;;;;;30.70;18.75;;;3.10;95.20;;;;;;5030714;28;20029;-50
2021/01/11 11:19:56;;;;;;;29.30;18.35;;;3.10;95.10;;;;;;5032299;28;20084;-49
2021/01/11 11:22:22;;;;;;;30.55;17.52;;;2.90;95.30;;;;;;5032410;28;20107;-51
2021/01/11 11:24:48;;;;;;;44.20;20.17;;;2.70;96.00;;;;;;5031234;28;20097;-52
2021/01/11 11:27:13;;;;;;;31.98;17.45;;;2.60;95.80;;;;;;5032199;28;20040;-49
2021/01/11 11:29:39;;;;;;;30.00;18.92;;;2.60;95.90;;;;;;5031972;28;20378;-47
2021/01/11 11:32:04;;;;;;;28.67;20.00;;;2.70;96.00;;;;;;5032104;28;20036;-48
2021/01/11 11:34:30;;;;;;;29.17;19.05;;;2.60;96.20;;;;;;5031025;28;20029;-48
2021/01/11 11:36:56;;;;;;;32.15;20.17;;;2.70;96.60;;;;;;5031806;28;20029;-48
2021/01/11 11:39:22;;;;;;;31.13;19.55;;;2.70;96.40;;;;;;5031860;28;20463;-44
2021/01/11 11:41:47;;;;;;;28.17;19.30;;;2.60;96.50;;;;;;5031281;28;20037;-47
2021/01/11 11:44:13;;;;;;;34.35;19.02;;;2.50;96.40;;;;;;5030922;28;20026;-48
2021/01/11 11:46:38;;;;;;;33.70;18.83;;;2.50;96.50;;;;;;5030815;28;20034;-48
2021/01/11 11:49:04;;;;;;;35.90;21.55;;;2.30;96.30;;;;;;5031167;28;20029;-49
2021/01/11 11:51:29;;;;;;;27.98;19.23;;;2.00;97.10;;;;;;5031465;28;20034;-50
2021/01/11 11:53:56;;;;;;;30.23;18.38;;;1.80;97.40;;;;;;5027836;28;20444;-50
2021/01/11 11:56:22;;;;;;;34.90;20.35;;;1.80;97.60;;;;;;5031352;28;20029;-53
2021/01/11 11:58:47;;;;;;;31.35;20.27;;;1.90;97.60;;;;;;5031190;28;20029;-55
2021/01/11 12:01:13;;;;;;;29.95;19.13;;;1.80;97.80;;;;;;5031487;28;20033;-51
2021/01/11 12:03:38;;;;;;;34.45;20.00;;;1.90;97.90;;;;;;5030432;28;20025;-51
2021/01/11 12:06:04;;;;;;;31.45;18.75;;;2.00;97.90;;;;;;5031298;28;20381;-52
2021/01/11 12:08:29;;;;;;;31.77;19.25;;;2.00;97.70;;;;;;5030890;28;20038;-55
2021/01/11 12:10:56;;;;;;;30.58;19.33;;;2.00;97.20;;;;;;5031131;28;20036;-51
2021/01/11 12:13:21;;;;;;;28.40;18.58;;;2.00;97.30;;;;;;5030177;28;20053;-52
2021/01/11 12:15:47;;;;;;;34.58;19.67;;;2.10;97.40;;;;;;5031479;28;20042;-53
2021/01/11 12:18:13;;;;;;;30.27;18.80;;;2.00;97.00;;;;;;5030302;28;20036;-50
2021/01/11 12:20:38;;;;;;;31.35;19.38;;;1.90;96.50;;;;;;5030785;28;20076;-52
2021/01/11 12:23:04;;;;;;;29.45;18.05;;;1.90;96.90;;;;;;5029792;28;20064;-50
2021/01/11 12:25:29;;;;;;;27.63;17.98;;;1.90;96.60;;;;;;5030855;28;20029;-49
2021/01/11 12:27:55;;;;;;;30.30;18.92;;;1.90;97.00;;;;;;5029898;28;20021;-52
2021/01/11 12:30:21;;;;;;;28.13;19.13;;;1.90;97.00;;;;;;5031198;28;20547;-48
2021/01/11 12:32:47;;;;;;;29.35;18.98;;;1.90;96.70;;;;;;5029924;28;20033;-54
2021/01/11 12:35:14;;;;;;;29.10;18.10;;;2.10;96.80;;;;;;5030057;28;20112;-51
2021/01/11 12:37:40;;;;;;;23.33;16.25;;;2.00;96.30;;;;;;5030649;28;20025;-50